createdAt,value
2018-07-16T00:00:26.738Z,3.20
2018-07-16T00:02:55.620Z,3.00
2018-07-16T00:05:24.482Z,2.90
2018-07-16T00:07:53.304Z,3.00
2018-07-16T00:10:22.178Z,3.10
2018-07-16T00:12:51.042Z,3.00
2018-07-16T00:15:19.902Z,3.13
2018-07-16T00:17:48.780Z,3.10
2018-07-16T00:20:17.642Z,3.23
2018-07-16T00:22:46.537Z,2.80
2018-07-16T00:25:15.409Z,2.97
2018-07-16T00:27:44.300Z,3.00
2018-07-16T00:30:13.198Z,3.00
2018-07-16T00:32:42.062Z,2.97
2018-07-16T00:35:10.910Z,2.80
2018-07-16T00:37:39.764Z,2.83
2018-07-16T00:40:08.647Z,3.40
2018-07-16T00:42:37.570Z,3.27
2018-07-16T00:45:06.521Z,3.10
2018-07-16T00:47:35.445Z,3.10
2018-07-16T00:50:04.449Z,3.00
2018-07-16T00:52:33.326Z,3.10
2018-07-16T00:55:02.238Z,3.20
2018-07-16T00:57:31.210Z,2.90
2018-07-16T01:00:00.154Z,3.50
2018-07-16T01:02:29.017Z,3.20
2018-07-16T01:04:58.024Z,3.17
2018-07-16T01:07:26.900Z,3.20
2018-07-16T01:09:55.758Z,3.10
2018-07-16T01:12:24.781Z,3.20
2018-07-16T01:14:53.714Z,3.50
2018-07-16T01:17:22.568Z,3.00
2018-07-16T01:19:51.503Z,3.20
2018-07-16T01:22:20.377Z,3.07
2018-07-16T01:24:49.236Z,2.90
2018-07-16T01:27:19.849Z,3.07
2018-07-16T01:29:48.666Z,3.13
2018-07-16T01:32:17.502Z,3.33
2018-07-16T01:34:46.434Z,3.10
2018-07-16T01:37:15.285Z,3.30
2018-07-16T01:39:44.217Z,3.03
2018-07-16T01:42:13.171Z,3.27
2018-07-16T01:44:41.981Z,3.30
2018-07-16T01:47:10.839Z,3.57
2018-07-16T01:49:39.732Z,3.27
2018-07-16T01:52:08.640Z,3.13
2018-07-16T01:54:37.622Z,3.37
2018-07-16T01:57:06.598Z,3.30
2018-07-16T01:59:35.491Z,3.20
2018-07-16T02:02:04.827Z,3.10
2018-07-16T02:04:33.769Z,3.33
2018-07-16T02:07:02.610Z,3.53
2018-07-16T02:09:31.515Z,3.10
2018-07-16T02:12:00.453Z,3.53
2018-07-16T02:14:29.346Z,3.40
2018-07-16T02:16:58.250Z,3.50
2018-07-16T02:19:27.200Z,3.33
2018-07-16T02:21:56.108Z,3.30
2018-07-16T02:24:25.013Z,3.20
2018-07-16T02:26:54.050Z,3.50
2018-07-16T02:29:22.992Z,3.60
2018-07-16T02:31:51.886Z,3.43
2018-07-16T02:34:20.839Z,3.30
2018-07-16T02:36:49.843Z,3.33
2018-07-16T02:39:18.712Z,3.50
2018-07-16T02:41:47.613Z,3.30
2018-07-16T02:44:16.509Z,3.20
2018-07-16T02:46:45.450Z,3.50
2018-07-16T02:49:14.377Z,3.43
2018-07-16T02:51:43.211Z,3.50
2018-07-16T02:54:12.093Z,3.53
2018-07-16T02:56:41.016Z,3.20
2018-07-16T02:59:09.936Z,3.20
2018-07-16T03:01:38.868Z,3.30
2018-07-16T03:04:07.778Z,3.53
2018-07-16T03:06:36.669Z,3.47
2018-07-16T03:09:06.096Z,3.33
2018-07-16T03:11:35.066Z,3.70
2018-07-16T03:14:04.043Z,3.50
2018-07-16T03:16:33.159Z,3.50
2018-07-16T03:19:02.090Z,3.70
2018-07-16T03:21:31.076Z,3.53
2018-07-16T03:24:00.060Z,3.40
2018-07-16T03:26:28.926Z,3.77
2018-07-16T03:28:57.826Z,3.63
2018-07-16T03:31:26.738Z,3.93
2018-07-16T03:33:55.690Z,3.60
2018-07-16T03:36:24.620Z,3.77
2018-07-16T03:38:53.475Z,3.47
2018-07-16T03:41:22.431Z,3.93
2018-07-16T03:43:51.323Z,3.87
2018-07-16T03:46:20.216Z,3.70
2018-07-16T03:48:49.136Z,3.77
2018-07-16T03:51:18.120Z,4.03
2018-07-16T03:53:47.000Z,3.60
2018-07-16T03:56:16.043Z,3.57
2018-07-16T03:58:44.897Z,3.80
2018-07-16T04:01:13.741Z,3.63
2018-07-16T04:03:42.637Z,4.07
2018-07-16T04:06:11.493Z,4.00
2018-07-16T04:08:40.406Z,3.90
2018-07-16T04:11:09.693Z,4.10
2018-07-16T04:13:39.384Z,3.53
2018-07-16T04:16:09.615Z,4.00
2018-07-16T04:18:38.954Z,3.80
2018-07-16T04:21:08.468Z,3.83
2018-07-16T04:23:37.845Z,4.10
2018-07-16T04:26:07.001Z,3.77
2018-07-16T04:28:36.299Z,3.87
2018-07-16T04:31:05.619Z,4.00
2018-07-16T04:33:34.947Z,3.90
2018-07-16T04:36:04.554Z,3.50
2018-07-16T04:38:34.617Z,3.77
2018-07-16T04:41:03.763Z,4.10
2018-07-16T04:43:33.281Z,4.47
2018-07-16T04:46:02.610Z,4.23
2018-07-16T04:48:32.484Z,4.40
2018-07-16T04:51:02.194Z,3.80
2018-07-16T04:53:31.964Z,3.57
2018-07-16T04:56:01.416Z,3.70
2018-07-16T04:58:30.689Z,3.50
2018-07-16T05:01:00.264Z,3.40
2018-07-16T05:03:29.929Z,3.77
2018-07-16T05:05:59.262Z,3.60
2018-07-16T05:08:28.646Z,3.63
2018-07-16T05:10:58.464Z,3.60
2018-07-16T05:13:27.558Z,3.90
2018-07-16T05:15:56.845Z,3.60
2018-07-16T05:18:26.407Z,3.67
2018-07-16T05:20:55.991Z,3.80
2018-07-16T05:23:27.236Z,3.43
2018-07-16T05:25:56.456Z,3.70
2018-07-16T05:28:26.108Z,3.80
2018-07-16T05:30:55.635Z,3.63
2018-07-16T05:33:25.198Z,3.60
2018-07-16T05:35:55.983Z,3.30
2018-07-16T05:38:25.213Z,3.53
2018-07-16T05:40:55.310Z,3.40
2018-07-16T05:43:24.737Z,3.47
2018-07-16T05:45:54.216Z,3.60
2018-07-16T05:48:23.518Z,3.53
2018-07-16T05:50:53.379Z,3.50
2018-07-16T05:53:22.769Z,3.40
2018-07-16T05:55:52.595Z,3.70
2018-07-16T05:58:22.964Z,3.47
2018-07-16T06:00:52.744Z,3.43
2018-07-16T06:03:22.781Z,4.00
2018-07-16T06:05:52.328Z,3.50
2018-07-16T06:08:21.553Z,3.37
2018-07-16T06:10:50.681Z,3.40
2018-07-16T06:13:20.839Z,3.37
2018-07-16T06:15:50.537Z,3.33
2018-07-16T06:18:20.030Z,4.00
2018-07-16T06:20:50.295Z,3.50
2018-07-16T06:23:19.880Z,3.37
2018-07-16T06:25:50.127Z,3.57
2018-07-16T06:28:19.754Z,3.80
2018-07-16T06:30:49.295Z,3.80
2018-07-16T06:33:19.737Z,3.60
2018-07-16T06:35:49.317Z,4.10
2018-07-16T06:38:19.046Z,3.93
2018-07-16T06:40:48.986Z,3.60
2018-07-16T06:43:18.711Z,3.80
2018-07-16T06:45:48.169Z,4.03
2018-07-16T06:48:17.967Z,3.30
2018-07-16T06:50:48.134Z,3.53
2018-07-16T06:53:17.857Z,3.37
2018-07-16T06:55:47.381Z,3.90
2018-07-16T06:58:17.017Z,3.77
2018-07-16T07:00:47.626Z,3.80
2018-07-16T07:03:16.617Z,3.70
2018-07-16T07:05:46.318Z,3.43
2018-07-16T07:08:15.658Z,3.63
2018-07-16T07:10:45.366Z,3.77
2018-07-16T07:13:14.707Z,3.50
2018-07-16T07:15:44.294Z,3.57
2018-07-16T07:18:14.089Z,3.70
2018-07-16T07:20:44.165Z,3.60
2018-07-16T07:23:13.458Z,3.77
2018-07-16T07:25:42.984Z,3.37
2018-07-16T07:28:12.146Z,3.43
2018-07-16T07:30:41.414Z,3.70
2018-07-16T07:33:12.526Z,3.87
2018-07-16T07:35:42.671Z,3.37
2018-07-16T07:38:12.248Z,3.50
2018-07-16T07:40:42.448Z,3.30
2018-07-16T07:43:11.894Z,3.50
2018-07-16T07:45:41.913Z,3.27
2018-07-16T07:48:11.841Z,3.30
2018-07-16T07:50:41.435Z,3.50
2018-07-16T07:53:12.055Z,3.40
2018-07-16T07:55:42.555Z,3.50
2018-07-16T07:58:11.826Z,3.50
2018-07-16T08:00:41.514Z,4.00
2018-07-16T08:03:10.725Z,3.73
2018-07-16T08:05:40.796Z,3.70
2018-07-16T08:08:09.897Z,3.57
2018-07-16T08:10:39.488Z,3.67
2018-07-16T08:13:08.984Z,3.67
2018-07-16T08:15:39.179Z,3.57
2018-07-16T08:18:08.406Z,3.63
2018-07-16T08:20:37.806Z,3.30
2018-07-16T08:23:08.392Z,4.10
2018-07-16T08:25:38.370Z,3.70
2018-07-16T08:28:08.433Z,3.60
2018-07-16T08:30:37.841Z,3.67
2018-07-16T08:33:07.788Z,3.80
2018-07-16T08:35:37.681Z,3.70
2018-07-16T08:38:07.263Z,3.50
2018-07-16T08:40:37.053Z,3.63
2018-07-16T08:43:06.844Z,3.50
2018-07-16T08:45:36.035Z,3.53
2018-07-16T08:48:05.873Z,3.67
2018-07-16T08:50:35.574Z,3.20
2018-07-16T08:53:04.962Z,3.20
2018-07-16T08:55:34.391Z,3.40
2018-07-16T08:58:03.794Z,3.47
2018-07-16T09:00:32.934Z,2.80
2018-07-16T09:03:01.933Z,3.60
2018-07-16T09:05:30.866Z,3.50
2018-07-16T09:07:59.829Z,3.60
2018-07-16T09:10:29.111Z,3.57
2018-07-16T09:12:58.028Z,3.23
2018-07-16T09:15:27.126Z,3.30
2018-07-16T09:17:56.026Z,3.60
2018-07-16T09:20:24.954Z,3.20
2018-07-16T09:22:54.700Z,3.23
2018-07-16T09:25:23.687Z,3.37
2018-07-16T09:27:53.002Z,3.30
2018-07-16T09:30:21.893Z,3.40
2018-07-16T09:32:51.044Z,3.30
2018-07-16T09:35:19.922Z,3.60
2018-07-16T09:37:48.908Z,3.03
2018-07-16T09:40:17.954Z,3.20
2018-07-16T09:42:47.089Z,3.47
2018-07-16T09:45:16.006Z,3.20
2018-07-16T09:47:45.558Z,4.40
2018-07-16T09:50:14.502Z,3.30
2018-07-16T09:52:43.432Z,3.17
2018-07-16T09:55:12.471Z,2.90
2018-07-16T09:57:41.377Z,3.00
2018-07-16T10:00:10.505Z,3.10
2018-07-16T10:02:39.553Z,3.30
2018-07-16T10:05:08.734Z,2.93
2018-07-16T10:07:37.937Z,3.40
2018-07-16T10:10:07.790Z,2.70
2018-07-16T10:12:37.829Z,2.97
2018-07-16T10:15:07.521Z,2.80
2018-07-16T10:17:36.689Z,2.27
2018-07-16T10:20:06.136Z,2.90
2018-07-16T10:22:35.394Z,2.83
2018-07-16T10:25:04.490Z,2.70
2018-07-16T10:27:33.799Z,2.93
2018-07-16T10:30:03.080Z,2.80
2018-07-16T10:32:32.498Z,2.30
2018-07-16T10:35:01.485Z,2.30
2018-07-16T10:37:30.615Z,2.47
2018-07-16T10:39:59.786Z,3.50
2018-07-16T10:42:29.242Z,2.57
2018-07-16T10:44:58.610Z,3.17
2018-07-16T10:47:27.824Z,2.37
2018-07-16T10:49:56.931Z,2.50
2018-07-16T10:52:25.946Z,3.37
2018-07-16T10:54:55.441Z,3.40
2018-07-16T10:57:25.069Z,2.97
2018-07-16T10:59:54.391Z,2.43
2018-07-16T11:02:23.537Z,2.97
2018-07-16T11:04:53.020Z,2.70
2018-07-16T11:07:23.125Z,2.40
2018-07-16T11:09:52.747Z,2.50
2018-07-16T11:12:22.173Z,3.00
2018-07-16T11:14:51.505Z,3.67
2018-07-16T11:17:21.129Z,2.90
2018-07-16T11:19:50.528Z,2.57
2018-07-16T11:22:20.748Z,2.70
2018-07-16T11:24:49.884Z,2.37
2018-07-16T11:27:18.876Z,1.90
2018-07-16T11:29:48.169Z,2.20
2018-07-16T11:32:17.255Z,2.30
2018-07-16T11:34:46.177Z,2.17
2018-07-16T11:37:15.247Z,2.27
2018-07-16T11:39:44.297Z,2.23
2018-07-16T11:42:13.174Z,2.30
2018-07-16T11:44:42.215Z,2.37
2018-07-16T11:47:11.448Z,2.60
2018-07-16T11:49:40.799Z,4.47
2018-07-16T11:52:09.955Z,3.17
2018-07-16T11:54:39.156Z,2.03
2018-07-16T11:57:08.904Z,2.23
2018-07-16T11:59:38.115Z,2.30
2018-07-16T12:02:07.488Z,2.23
2018-07-16T12:04:36.680Z,2.30
2018-07-16T12:07:05.779Z,2.30
2018-07-16T12:09:34.814Z,2.30
2018-07-16T12:12:03.922Z,2.27
2018-07-16T12:14:33.453Z,2.40
2018-07-16T12:17:02.583Z,2.47
2018-07-16T12:19:32.006Z,2.50
2018-07-16T12:22:01.646Z,2.47
2018-07-16T12:24:30.802Z,2.63
2018-07-16T12:26:59.934Z,2.47
2018-07-16T12:29:28.870Z,2.47
2018-07-16T12:31:58.268Z,2.40
2018-07-16T12:34:27.681Z,2.47
2018-07-16T12:36:56.651Z,2.40
2018-07-16T12:39:26.227Z,2.40
2018-07-16T12:41:55.333Z,2.30
2018-07-16T12:44:24.540Z,2.43
2018-07-16T12:46:53.922Z,2.60
2018-07-16T12:49:23.441Z,2.30
2018-07-16T12:51:52.658Z,2.50
2018-07-16T12:54:22.763Z,2.10
2018-07-16T12:56:52.413Z,2.30
2018-07-16T12:59:21.734Z,2.30
2018-07-16T13:01:51.434Z,3.30
2018-07-16T13:04:20.480Z,2.47
2018-07-16T13:06:49.590Z,2.70
2018-07-16T13:09:18.791Z,2.20
2018-07-16T13:11:47.989Z,2.40
2018-07-16T13:14:17.279Z,2.27
2018-07-16T13:16:46.733Z,2.67
2018-07-16T13:19:15.995Z,2.30
2018-07-16T13:21:45.486Z,2.40
2018-07-16T13:24:15.308Z,2.60
2018-07-16T13:26:45.261Z,2.40
2018-07-16T13:29:14.763Z,2.23
2018-07-16T13:31:44.485Z,2.73
2018-07-16T13:34:13.880Z,2.57
2018-07-16T13:36:43.180Z,2.50
2018-07-16T13:39:13.028Z,2.80
2018-07-16T13:41:42.430Z,2.53
2018-07-16T13:44:11.693Z,2.43
2018-07-16T13:46:41.209Z,2.50
2018-07-16T13:49:10.251Z,2.40
2018-07-16T13:51:39.297Z,2.20
2018-07-16T13:54:08.287Z,2.40
2018-07-16T13:56:37.338Z,2.20
2018-07-16T13:59:06.517Z,2.03
2018-07-16T14:01:35.894Z,1.87
2018-07-16T14:04:05.005Z,2.37
2018-07-16T14:06:33.885Z,2.30
2018-07-16T14:09:02.892Z,2.20
2018-07-16T14:11:31.916Z,2.20
2018-07-16T14:14:00.947Z,2.43
2018-07-16T14:16:30.067Z,2.20
2018-07-16T14:18:59.215Z,2.13
2018-07-16T14:21:28.326Z,2.70
2018-07-16T14:23:57.527Z,2.33
2018-07-16T14:26:26.648Z,2.57
2018-07-16T14:28:55.733Z,2.20
2018-07-16T14:31:24.876Z,2.20
2018-07-16T14:33:54.081Z,2.00
2018-07-16T14:36:23.318Z,1.90
2018-07-16T14:38:52.742Z,1.80
2018-07-16T14:41:22.013Z,2.20
2018-07-16T14:43:51.098Z,2.10
2018-07-16T14:46:20.205Z,2.13
2018-07-16T14:48:49.314Z,1.77
2018-07-16T14:51:18.354Z,1.90
2018-07-16T14:53:47.456Z,1.80
2018-07-16T14:56:16.681Z,1.70
2018-07-16T14:58:45.746Z,1.93
2018-07-16T15:01:14.736Z,1.90
2018-07-16T15:03:43.794Z,1.70
2018-07-16T15:06:12.807Z,1.90
2018-07-16T15:08:41.846Z,2.03
2018-07-16T15:11:10.834Z,1.80
2018-07-16T15:13:39.937Z,1.90
2018-07-16T15:16:08.861Z,1.80
2018-07-16T15:18:37.823Z,1.83
2018-07-16T15:21:07.138Z,1.80
2018-07-16T15:23:36.061Z,2.00
2018-07-16T15:26:05.432Z,1.80
2018-07-16T15:28:34.533Z,2.10
2018-07-16T15:31:03.620Z,1.90
2018-07-16T15:33:32.792Z,2.00
2018-07-16T15:36:01.855Z,2.00
2018-07-16T15:38:30.805Z,2.00
2018-07-16T15:40:59.801Z,2.30
2018-07-16T15:43:28.913Z,2.20
2018-07-16T15:45:58.093Z,2.30
2018-07-16T15:48:27.385Z,2.07
2018-07-16T15:50:56.580Z,2.03
2018-07-16T15:53:25.671Z,2.40
2018-07-16T15:55:54.693Z,2.50
2018-07-16T15:58:23.791Z,2.40
2018-07-16T16:00:52.812Z,2.40
2018-07-16T16:03:21.762Z,2.50
2018-07-16T16:05:50.947Z,2.00
2018-07-16T16:08:20.278Z,2.60
2018-07-16T16:10:49.499Z,2.50
2018-07-16T16:13:18.723Z,2.30
2018-07-16T16:15:47.710Z,2.30
2018-07-16T16:18:16.930Z,2.57
2018-07-16T16:20:46.013Z,2.33
2018-07-16T16:23:15.133Z,2.60
2018-07-16T16:25:44.037Z,2.53
2018-07-16T16:28:13.043Z,2.00
2018-07-16T16:30:42.608Z,2.30
2018-07-16T16:33:12.019Z,2.30
2018-07-16T16:35:41.052Z,2.53
2018-07-16T16:38:10.060Z,2.67
2018-07-16T16:40:39.041Z,2.40
2018-07-16T16:43:08.210Z,2.47
2018-07-16T16:45:37.696Z,2.23
2018-07-16T16:48:07.401Z,2.60
2018-07-16T16:50:36.967Z,2.63
2018-07-16T16:53:06.025Z,2.80
2018-07-16T16:55:36.980Z,2.53
2018-07-16T16:58:06.134Z,3.50
2018-07-16T17:00:35.610Z,3.20
2018-07-16T17:03:04.630Z,2.93
2018-07-16T17:05:33.644Z,2.83
2018-07-16T17:08:02.576Z,3.03
2018-07-16T17:10:31.483Z,2.70
2018-07-16T17:13:00.484Z,2.77
2018-07-16T17:15:29.392Z,3.00
2018-07-16T17:17:58.362Z,3.07
2018-07-16T17:20:27.274Z,2.63
2018-07-16T17:22:56.230Z,2.97
2018-07-16T17:25:25.198Z,3.90
2018-07-16T17:27:54.120Z,3.70
2018-07-16T17:30:23.411Z,4.00
2018-07-16T17:32:52.318Z,3.77
2018-07-16T17:35:21.241Z,3.40
2018-07-16T17:37:50.204Z,3.50
2018-07-16T17:40:19.045Z,2.80
2018-07-16T17:42:47.948Z,3.20
2018-07-16T17:45:16.996Z,3.00
2018-07-16T17:47:45.857Z,2.90
2018-07-16T17:50:14.842Z,2.90
2018-07-16T17:52:44.549Z,2.80
2018-07-16T17:55:13.467Z,3.57
2018-07-16T17:57:42.414Z,3.60
2018-07-16T18:00:11.312Z,3.80
2018-07-16T18:02:40.152Z,3.60
2018-07-16T18:05:09.150Z,3.77
2018-07-16T18:07:38.148Z,3.57
2018-07-16T18:10:06.954Z,3.30
2018-07-16T18:12:35.874Z,2.70
2018-07-16T18:15:04.903Z,2.83
2018-07-16T18:17:33.754Z,2.93
2018-07-16T18:20:02.670Z,3.10
2018-07-16T18:22:31.497Z,2.70
2018-07-16T18:25:00.333Z,2.97
2018-07-16T18:27:29.242Z,3.13
2018-07-16T18:29:58.139Z,3.43
2018-07-16T18:32:27.030Z,3.07
2018-07-16T18:34:55.897Z,3.03
2018-07-16T18:37:24.756Z,3.00
2018-07-16T18:39:53.612Z,2.97
2018-07-16T18:42:22.569Z,3.13
2018-07-16T18:44:51.468Z,3.10
2018-07-16T18:47:20.339Z,3.40
2018-07-16T18:49:49.201Z,3.03
2018-07-16T18:52:18.089Z,3.00
2018-07-16T18:54:47.023Z,3.10
2018-07-16T18:57:15.955Z,3.03
2018-07-16T18:59:44.817Z,3.03
2018-07-16T19:02:13.715Z,3.10
2018-07-16T19:04:42.617Z,3.07
2018-07-16T19:07:11.579Z,3.40
2018-07-16T19:09:40.779Z,3.20
2018-07-16T19:12:09.744Z,3.37
2018-07-16T19:14:38.718Z,3.10
2018-07-16T19:17:07.612Z,3.03
2018-07-16T19:19:36.546Z,3.20
2018-07-16T19:22:05.502Z,3.10
2018-07-16T19:24:34.388Z,3.40
2018-07-16T19:27:03.428Z,3.23
2018-07-16T19:29:32.315Z,2.90
2018-07-16T19:32:01.200Z,3.00
2018-07-16T19:34:30.130Z,3.00
2018-07-16T19:36:58.987Z,3.33
2018-07-16T19:39:27.849Z,3.23
2018-07-16T19:41:56.735Z,3.30
2018-07-16T19:44:25.651Z,3.10
2018-07-16T19:46:54.625Z,3.90
2018-07-16T19:49:23.508Z,3.23
2018-07-16T19:51:52.495Z,3.17
2018-07-16T19:54:21.788Z,3.33
2018-07-16T19:56:50.734Z,3.20
2018-07-16T19:59:19.703Z,3.17
2018-07-16T20:01:48.911Z,2.97
2018-07-16T20:04:17.774Z,3.27
2018-07-16T20:06:46.719Z,3.40
2018-07-16T20:09:15.680Z,3.40
2018-07-16T20:11:44.514Z,3.50
2018-07-16T20:14:13.378Z,3.07
2018-07-16T20:16:43.314Z,3.20
2018-07-16T20:19:12.987Z,2.97
2018-07-16T20:21:41.933Z,3.40
2018-07-16T20:24:10.893Z,3.47
2018-07-16T20:26:39.921Z,3.53
2018-07-16T20:29:08.923Z,3.40
2018-07-16T20:31:37.769Z,3.30
2018-07-16T20:34:06.683Z,3.40
2018-07-16T20:36:35.574Z,3.37
2018-07-16T20:39:05.394Z,3.20
2018-07-16T20:41:34.334Z,3.40
2018-07-16T20:44:03.476Z,3.43
2018-07-16T20:46:32.402Z,3.40
2018-07-16T20:49:01.416Z,3.40
2018-07-16T20:51:30.284Z,3.27
2018-07-16T20:53:59.141Z,3.30
2018-07-16T20:56:28.004Z,3.23
2018-07-16T20:58:56.973Z,3.20
2018-07-16T21:01:25.790Z,3.23
2018-07-16T21:03:54.666Z,3.33
2018-07-16T21:06:23.530Z,3.33
2018-07-16T21:08:52.404Z,3.50
2018-07-16T21:11:21.305Z,3.47
2018-07-16T21:13:50.270Z,3.40
2018-07-16T21:16:19.214Z,3.20
2018-07-16T21:18:49.783Z,3.60
2018-07-16T21:21:18.633Z,3.30
2018-07-16T21:23:47.481Z,3.37
2018-07-16T21:26:16.397Z,3.43
2018-07-16T21:28:45.287Z,3.50
2018-07-16T21:31:14.166Z,3.27
2018-07-16T21:33:43.047Z,3.37
2018-07-16T21:36:11.932Z,3.37
2018-07-16T21:38:40.853Z,3.70
2018-07-16T21:41:09.797Z,3.40
2018-07-16T21:43:38.627Z,3.47
2018-07-16T21:46:07.683Z,3.83
2018-07-16T21:48:36.643Z,3.40
2018-07-16T21:51:05.592Z,3.20
2018-07-16T21:53:34.502Z,3.23
2018-07-16T21:56:03.493Z,3.60
2018-07-16T21:58:32.370Z,3.00
2018-07-16T22:01:01.319Z,3.90
2018-07-16T22:03:30.259Z,3.40
2018-07-16T22:05:59.174Z,3.30
2018-07-16T22:08:28.137Z,3.27
2018-07-16T22:10:57.103Z,3.57
2018-07-16T22:13:25.992Z,3.50
2018-07-16T22:15:54.830Z,3.73
2018-07-16T22:18:23.776Z,3.40
2018-07-16T22:20:52.773Z,3.27
2018-07-16T22:23:21.780Z,3.70
2018-07-16T22:25:50.833Z,3.63
2018-07-16T22:28:19.714Z,3.60
2018-07-16T22:30:48.802Z,3.40
2018-07-16T22:33:17.794Z,3.43
2018-07-16T22:35:46.750Z,3.17
2018-07-16T22:38:15.590Z,3.33
2018-07-16T22:40:44.501Z,3.37
2018-07-16T22:43:13.365Z,3.40
2018-07-16T22:45:42.343Z,3.40
2018-07-16T22:48:11.266Z,3.13
2018-07-16T22:50:40.185Z,3.10
2018-07-16T22:53:09.091Z,3.20
2018-07-16T22:55:38.028Z,3.60
2018-07-16T22:58:06.935Z,3.53
2018-07-16T23:00:35.946Z,3.50
2018-07-16T23:03:04.976Z,3.40
2018-07-16T23:05:33.842Z,3.40
2018-07-16T23:08:02.719Z,3.60
2018-07-16T23:10:31.609Z,3.60
2018-07-16T23:13:00.440Z,3.33
2018-07-16T23:15:29.339Z,3.70
2018-07-16T23:17:58.279Z,2.97
2018-07-16T23:20:27.134Z,3.50
2018-07-16T23:22:56.993Z,3.53
2018-07-16T23:25:25.885Z,3.57
2018-07-16T23:27:54.804Z,3.73
2018-07-16T23:30:23.637Z,3.40
2018-07-16T23:32:52.531Z,3.57
2018-07-16T23:35:21.415Z,3.77
2018-07-16T23:37:50.436Z,3.57
2018-07-16T23:40:19.364Z,3.40
2018-07-16T23:42:48.277Z,3.77
2018-07-16T23:45:17.126Z,3.77
2018-07-16T23:47:45.985Z,3.50
2018-07-16T23:50:14.936Z,3.57
2018-07-16T23:52:43.761Z,3.80
2018-07-16T23:55:12.676Z,3.60
2018-07-16T23:57:41.609Z,4.00
